createdAt,value
2023-03-23T15:58:11.426Z,46.09
2023-03-23T15:58:36.067Z,46.18
2023-03-23T15:59:01.198Z,46.18
2023-03-23T15:59:24.503Z,46.16
2023-03-23T15:59:47.437Z,46.34
2023-03-23T16:00:11.261Z,46.22
2023-03-23T16:00:35.889Z,46.16
2023-03-23T16:00:59.779Z,46.22
2023-03-23T16:01:26.258Z,46.22
2023-03-23T16:01:49.240Z,46.28
2023-03-23T16:02:19.992Z,46.28
2023-03-23T16:02:43.853Z,46.18
2023-03-23T16:03:08.346Z,46.40
2023-03-23T16:03:42.404Z,46.41
2023-03-23T16:04:06.670Z,46.47
2023-03-23T16:04:30.966Z,46.53
2023-03-23T16:04:53.914Z,46.72
2023-03-23T16:05:16.972Z,46.57
2023-03-23T16:05:40.030Z,46.58
2023-03-23T16:06:03.487Z,46.69
2023-03-23T16:06:26.834Z,46.66
2023-03-23T16:06:50.337Z,46.79
2023-03-23T16:07:14.267Z,46.74
2023-03-23T16:07:38.305Z,46.74
2023-03-23T16:08:01.200Z,46.69
2023-03-23T16:08:28.546Z,46.78
2023-03-23T16:08:56.953Z,46.96
2023-03-23T16:09:20.821Z,46.80
2023-03-23T16:09:44.702Z,46.97
2023-03-23T16:10:08.139Z,46.98
2023-03-23T16:10:33.267Z,47.09
2023-03-23T16:10:56.627Z,47.07
2023-03-23T16:11:19.810Z,47.21
2023-03-23T16:11:44.572Z,47.24
2023-03-23T16:12:09.880Z,47.25
2023-03-23T16:12:33.904Z,47.28
2023-03-23T16:12:57.038Z,47.29
2023-03-23T16:13:20.239Z,47.40
2023-03-23T16:13:43.173Z,47.39
2023-03-23T16:14:06.253Z,47.49
2023-03-23T16:14:29.470Z,47.61
2023-03-23T16:14:53.710Z,47.55
2023-03-23T16:15:17.241Z,47.62
2023-03-23T16:15:43.521Z,47.70
2023-03-23T16:16:12.121Z,47.71
2023-03-23T16:16:41.437Z,47.80
2023-03-23T16:17:06.494Z,47.85
2023-03-23T16:17:30.823Z,47.84
2023-03-23T16:17:55.943Z,47.99
2023-03-23T16:18:20.816Z,48.04
2023-03-23T16:18:44.440Z,48.21
2023-03-23T16:19:08.689Z,48.17
2023-03-23T16:19:33.224Z,48.23
2023-03-23T16:19:56.339Z,48.32
2023-03-23T16:20:21.007Z,48.39
2023-03-23T16:20:44.510Z,48.58
2023-03-23T16:21:08.042Z,48.62
2023-03-23T16:21:31.355Z,48.68
2023-03-23T16:21:54.317Z,48.72
2023-03-23T16:22:20.550Z,48.73
2023-03-23T16:22:45.396Z,48.86
2023-03-23T16:23:12.519Z,48.77
2023-03-23T16:23:38.092Z,48.99
2023-03-23T16:24:02.668Z,49.05
2023-03-23T16:24:26.561Z,49.12
2023-03-23T16:24:51.196Z,49.12
2023-03-23T16:25:14.669Z,49.16
2023-03-23T16:25:41.021Z,49.18
2023-03-23T16:26:04.630Z,49.23
2023-03-23T16:26:27.702Z,49.33
2023-03-23T16:26:50.767Z,49.26
2023-03-23T16:27:14.383Z,49.36
2023-03-23T16:27:37.906Z,49.43
2023-03-23T16:28:01.428Z,49.40
2023-03-23T16:28:24.852Z,49.45
2023-03-23T16:28:53.208Z,49.51
2023-03-23T16:29:34.351Z,49.60
2023-03-23T16:30:04.688Z,49.57
2023-03-23T16:30:33.128Z,49.67
2023-03-23T16:30:56.961Z,49.75
2023-03-23T16:31:21.020Z,49.68
2023-03-23T16:31:44.185Z,49.94
2023-03-23T16:32:07.952Z,49.98
2023-03-23T16:32:32.070Z,50.01
2023-03-23T16:32:57.429Z,50.09
2023-03-23T16:33:21.074Z,50.38
2023-03-23T16:33:44.457Z,50.24
2023-03-23T16:34:07.979Z,50.47
2023-03-23T16:34:33.978Z,50.46
2023-03-23T16:34:57.071Z,50.67
2023-03-23T16:35:21.616Z,50.65
2023-03-23T16:35:46.939Z,50.74
2023-03-23T16:36:11.872Z,50.79
2023-03-23T16:36:39.447Z,50.81
2023-03-23T16:37:04.604Z,50.91
2023-03-23T16:37:33.355Z,51.02
2023-03-23T16:38:08.407Z,51.02
2023-03-23T16:38:32.566Z,51.01
2023-03-23T16:38:56.494Z,51.04
2023-03-23T16:39:19.721Z,51.01
2023-03-23T16:39:42.864Z,51.13
2023-03-23T16:40:07.311Z,51.20
2023-03-23T16:40:30.381Z,51.17
2023-03-23T16:40:53.609Z,51.25
2023-03-23T16:41:16.838Z,51.34
2023-03-23T16:41:41.580Z,51.31
2023-03-23T16:42:09.803Z,51.26
2023-03-23T16:42:33.829Z,51.26
2023-03-23T16:42:58.473Z,51.37
2023-03-23T16:43:21.600Z,51.25
2023-03-23T16:43:45.218Z,51.32
2023-03-23T16:44:08.533Z,51.25
2023-03-23T16:44:32.415Z,51.40
2023-03-23T16:44:55.989Z,51.47
2023-03-23T16:45:19.820Z,51.49
2023-03-23T16:45:44.125Z,51.40
2023-03-23T16:46:07.826Z,51.41
2023-03-23T16:47:19.071Z,51.42
2023-03-23T16:47:42.215Z,51.58
2023-03-23T16:48:05.575Z,51.52
2023-03-23T16:48:31.175Z,51.69
2023-03-23T16:48:56.744Z,51.55
2023-03-23T16:49:20.780Z,51.56
2023-03-23T16:49:44.206Z,51.60
2023-03-23T16:50:09.865Z,51.60
2023-03-23T16:50:33.388Z,51.68
2023-03-23T16:50:56.827Z,51.74
2023-03-23T16:51:20.035Z,51.77
2023-03-23T16:51:43.755Z,51.82
2023-03-23T16:52:07.155Z,51.78
2023-03-23T16:52:30.499Z,51.87
2023-03-23T16:52:53.744Z,51.93
2023-03-23T16:53:17.337Z,51.99
2023-03-23T16:53:40.667Z,51.98
2023-03-23T16:54:03.667Z,52.11
2023-03-23T16:54:27.706Z,52.07
2023-03-23T16:54:51.638Z,52.11
2023-03-23T16:55:17.132Z,52.11
2023-03-23T16:55:40.811Z,52.12
2023-03-23T16:56:05.976Z,52.15
2023-03-23T16:56:31.530Z,52.05
2023-03-23T16:56:55.240Z,52.22
2023-03-23T16:57:18.398Z,52.20
2023-03-23T16:57:43.372Z,52.22
2023-03-23T16:58:16.318Z,52.27
2023-03-23T16:58:41.652Z,52.24
2023-03-23T16:59:05.073Z,52.27
2023-03-23T16:59:28.697Z,52.47
2023-03-23T16:59:52.015Z,52.44
2023-03-23T17:00:16.354Z,52.44
2023-03-23T17:00:40.806Z,52.50
2023-03-23T17:01:04.138Z,52.47
2023-03-23T17:01:32.282Z,52.63
2023-03-23T17:02:03.821Z,52.62
2023-03-23T17:02:29.680Z,52.61
2023-03-23T17:02:57.583Z,52.83
2023-03-23T17:03:21.629Z,52.85
2023-03-23T17:03:45.350Z,52.83
2023-03-23T17:04:08.724Z,52.94
2023-03-23T17:04:32.656Z,52.97
2023-03-23T17:04:56.894Z,53.08
2023-03-23T17:05:20.211Z,53.21
2023-03-23T17:05:45.018Z,53.24
2023-03-23T17:06:08.487Z,53.29
2023-03-23T17:06:31.705Z,53.35
2023-03-23T17:06:54.920Z,53.38
2023-03-23T17:07:18.352Z,53.46
2023-03-23T17:07:41.577Z,53.48
2023-03-23T17:08:04.896Z,53.51
2023-03-23T17:08:28.816Z,53.57
2023-03-23T17:08:54.382Z,53.52
2023-03-23T17:09:18.054Z,53.66
2023-03-23T17:09:42.657Z,53.68
2023-03-23T17:10:08.276Z,53.76
2023-03-23T17:10:32.061Z,53.61
2023-03-23T17:10:57.378Z,53.77
2023-03-23T17:11:20.674Z,53.76
2023-03-23T17:11:43.818Z,53.72
2023-03-23T17:12:07.371Z,53.73
2023-03-23T17:12:30.665Z,53.81
2023-03-23T17:12:54.356Z,53.87
2023-03-23T17:13:17.655Z,53.69
2023-03-23T17:13:42.188Z,53.94
2023-03-23T17:14:05.301Z,53.91
2023-03-23T17:14:29.019Z,53.96
2023-03-23T17:14:53.973Z,53.85
2023-03-23T17:15:19.654Z,54.06
2023-03-23T17:15:52.356Z,53.98
2023-03-23T17:16:17.780Z,53.98
2023-03-23T17:16:41.255Z,54.02
2023-03-23T17:17:09.068Z,54.07
2023-03-23T17:17:32.937Z,54.10
2023-03-23T17:17:56.755Z,54.16
2023-03-23T17:18:20.163Z,54.22
2023-03-23T17:18:43.286Z,54.31
2023-03-23T17:19:07.341Z,54.21
2023-03-23T17:19:31.956Z,54.54
2023-03-23T17:19:55.170Z,54.51
2023-03-23T17:20:18.490Z,54.55
2023-03-23T17:20:41.509Z,54.65
2023-03-23T17:21:04.697Z,54.64
2023-03-23T17:21:34.175Z,54.75
2023-03-23T17:21:57.390Z,54.74
2023-03-23T17:22:23.672Z,54.82
2023-03-23T17:22:46.907Z,54.92
2023-03-23T17:23:10.107Z,54.84
2023-03-23T17:23:33.833Z,55.05
2023-03-23T17:23:56.844Z,54.87
2023-03-23T17:24:20.078Z,55.14
2023-03-23T17:24:44.100Z,55.05
2023-03-23T17:25:08.466Z,55.22
2023-03-23T17:25:32.164Z,55.27
2023-03-23T17:25:55.792Z,55.19
2023-03-23T17:26:19.013Z,55.33
2023-03-23T17:26:42.223Z,55.35
2023-03-23T17:27:05.444Z,55.32
2023-03-23T17:27:29.989Z,55.41
2023-03-23T17:27:56.886Z,55.34
2023-03-23T17:28:28.736Z,55.57
2023-03-23T17:28:53.205Z,55.61
2023-03-23T17:29:16.487Z,55.72
2023-03-23T17:29:40.692Z,55.74
2023-03-23T17:30:04.934Z,55.77
2023-03-23T17:30:28.555Z,55.81
2023-03-23T17:30:53.206Z,55.90
2023-03-23T17:31:20.252Z,55.91
2023-03-23T17:31:43.444Z,55.89
2023-03-23T17:32:06.946Z,56.04
2023-03-23T17:32:30.454Z,56.14
2023-03-23T17:32:54.103Z,56.16
2023-03-23T17:33:17.424Z,56.24
2023-03-23T17:33:40.644Z,56.29
2023-03-23T17:34:03.759Z,56.27
2023-03-23T17:34:27.065Z,56.18
2023-03-23T17:34:55.904Z,56.34
2023-03-23T17:35:20.042Z,56.40
2023-03-23T17:35:45.547Z,56.33
2023-03-23T17:36:09.068Z,56.52
2023-03-23T17:36:33.493Z,56.47
2023-03-23T17:36:57.508Z,56.53
2023-03-23T17:37:21.253Z,56.52
2023-03-23T17:37:44.675Z,56.39
2023-03-23T17:38:07.729Z,56.46
2023-03-23T17:38:31.529Z,56.57
2023-03-23T17:38:54.919Z,56.60
2023-03-23T17:39:17.996Z,56.52
2023-03-23T17:39:43.599Z,56.58
2023-03-23T17:40:10.393Z,56.68
2023-03-23T17:40:33.716Z,56.61
2023-03-23T17:41:00.510Z,56.67
2023-03-23T17:41:25.061Z,56.70
2023-03-23T17:41:50.422Z,56.81
2023-03-23T17:42:14.051Z,56.82
2023-03-23T17:42:39.002Z,56.85
2023-03-23T17:43:02.562Z,56.91
2023-03-23T17:43:26.680Z,56.95
2023-03-23T17:43:49.779Z,56.92
2023-03-23T17:44:13.093Z,56.99
2023-03-23T17:44:36.617Z,57.02
2023-03-23T17:44:59.670Z,56.92
2023-03-23T17:45:23.255Z,56.82
2023-03-23T17:45:47.276Z,57.09
2023-03-23T17:46:10.834Z,56.94
2023-03-23T17:46:34.475Z,56.99
2023-03-23T17:46:58.081Z,56.97
2023-03-23T17:47:23.996Z,57.05
2023-03-23T17:47:47.907Z,56.98
2023-03-23T17:48:13.549Z,57.04
2023-03-23T17:48:36.666Z,57.09
2023-03-23T17:49:02.208Z,57.10
2023-03-23T17:49:27.301Z,57.16
2023-03-23T17:49:51.330Z,57.07
2023-03-23T17:50:14.435Z,57.11
2023-03-23T17:50:39.388Z,57.19
2023-03-23T17:51:02.605Z,57.25
2023-03-23T17:51:26.124Z,57.17
2023-03-23T17:51:49.651Z,57.19
2023-03-23T17:52:12.662Z,57.26
2023-03-23T17:52:36.394Z,57.25
2023-03-23T17:53:01.659Z,57.42
2023-03-23T17:53:25.685Z,57.37
2023-03-23T17:54:01.659Z,57.45
2023-03-23T17:54:31.154Z,57.63
2023-03-23T17:54:55.629Z,57.65
2023-03-23T17:55:22.414Z,57.65
2023-03-23T17:55:46.702Z,57.68
2023-03-23T17:56:10.550Z,57.85
2023-03-23T17:56:34.416Z,57.79
2023-03-23T17:56:58.896Z,57.77
2023-03-23T17:57:22.169Z,57.91
2023-03-23T17:57:46.044Z,57.87
2023-03-23T17:58:09.699Z,57.96
2023-03-23T17:58:32.922Z,58.11
2023-03-23T17:58:56.132Z,58.05
2023-03-23T17:59:19.451Z,58.08
2023-03-23T17:59:42.462Z,58.13
2023-03-23T18:00:09.439Z,58.30
2023-03-23T18:00:32.783Z,58.17
2023-03-23T18:00:56.751Z,58.33
2023-03-23T18:01:22.967Z,58.33
2023-03-23T18:01:49.117Z,58.41
2023-03-23T18:02:14.210Z,58.40
2023-03-23T18:02:38.027Z,58.35
2023-03-23T18:03:01.293Z,58.44
2023-03-23T18:03:25.465Z,58.56
2023-03-23T18:03:48.742Z,58.44
2023-03-23T18:04:11.954Z,58.62
2023-03-23T18:04:35.306Z,58.61
2023-03-23T18:04:59.835Z,58.70
2023-03-23T18:05:24.723Z,58.75
2023-03-23T18:05:48.126Z,58.90
2023-03-23T18:06:11.635Z,58.76
2023-03-23T18:06:34.938Z,58.95
2023-03-23T18:06:58.052Z,59.02
2023-03-23T18:07:23.743Z,59.05
2023-03-23T18:07:46.936Z,59.09
2023-03-23T18:08:11.181Z,59.13
2023-03-23T18:08:35.720Z,59.10
2023-03-23T18:08:59.144Z,59.21
2023-03-23T18:09:22.973Z,59.21
2023-03-23T18:09:46.801Z,59.15
2023-03-23T18:10:13.107Z,59.20
2023-03-23T18:10:37.630Z,59.17
2023-03-23T18:11:00.956Z,59.31
2023-03-23T18:11:24.168Z,59.32
2023-03-23T18:11:47.388Z,59.27
2023-03-23T18:12:10.602Z,59.37
2023-03-23T18:12:33.649Z,59.30
2023-03-23T18:12:56.825Z,59.41
2023-03-23T18:13:19.856Z,59.45
2023-03-23T18:13:43.256Z,59.52
2023-03-23T18:14:07.706Z,59.43
2023-03-23T18:14:32.251Z,59.54
2023-03-23T18:14:59.490Z,59.48
2023-03-23T18:15:22.981Z,59.73
2023-03-23T18:16:07.243Z,59.64
2023-03-23T18:16:34.304Z,59.77
2023-03-23T18:16:59.130Z,59.91
2023-03-23T18:17:23.186Z,59.84
2023-03-23T18:17:48.407Z,59.98
2023-03-23T18:18:11.878Z,59.92
2023-03-23T18:18:35.235Z,60.14
2023-03-23T18:18:58.218Z,60.16
2023-03-23T18:19:21.460Z,60.17
2023-03-23T18:19:44.596Z,60.24
2023-03-23T18:20:08.800Z,60.29
2023-03-23T18:20:31.892Z,60.39
2023-03-23T18:21:00.099Z,60.43
2023-03-23T18:21:23.501Z,60.42
2023-03-23T18:21:53.108Z,60.57
2023-03-23T18:22:18.905Z,60.67
2023-03-23T18:22:42.876Z,60.72
2023-03-23T18:23:07.101Z,60.78
2023-03-23T18:23:39.037Z,60.83
2023-03-23T18:24:06.746Z,60.93
2023-03-23T18:24:29.987Z,61.02
2023-03-23T18:24:54.388Z,61.15
2023-03-23T18:25:17.955Z,61.21
2023-03-23T18:25:41.129Z,61.25
2023-03-23T18:26:05.595Z,61.34
2023-03-23T18:26:28.998Z,61.38
2023-03-23T18:26:51.949Z,61.46
2023-03-23T18:27:15.016Z,61.52
2023-03-23T18:27:40.684Z,61.48
2023-03-23T18:28:05.489Z,61.61
2023-03-23T18:28:31.720Z,61.70
2023-03-23T18:28:56.382Z,61.67
2023-03-23T18:29:19.689Z,61.81
2023-03-23T18:29:42.696Z,61.72
2023-03-23T18:30:07.142Z,61.77
2023-03-23T18:30:30.766Z,61.81
2023-03-23T18:30:53.884Z,61.93
2023-03-23T18:31:17.330Z,61.99
2023-03-23T18:31:40.794Z,61.96
2023-03-23T18:32:04.254Z,61.96
2023-03-23T18:32:28.013Z,62.06
2023-03-23T18:32:51.214Z,62.00
2023-03-23T18:33:14.218Z,62.00
2023-03-23T18:33:37.739Z,62.02
2023-03-23T18:34:00.861Z,61.96
2023-03-23T18:34:24.569Z,62.07
2023-03-23T18:34:48.830Z,62.07
2023-03-23T18:35:11.927Z,62.00
2023-03-23T18:35:35.062Z,62.08
2023-03-23T18:35:59.377Z,62.11
2023-03-23T18:36:23.564Z,62.09
2023-03-23T18:36:46.733Z,62.23
2023-03-23T18:37:09.675Z,62.14
2023-03-23T18:37:33.058Z,62.20
2023-03-23T18:37:56.235Z,62.12
2023-03-23T18:38:19.621Z,62.23
2023-03-23T18:38:43.898Z,62.18
2023-03-23T18:39:07.150Z,62.27
2023-03-23T18:39:33.934Z,62.19
2023-03-23T18:39:57.370Z,62.23
2023-03-23T18:40:21.204Z,62.10
2023-03-23T18:40:45.652Z,62.20
2023-03-23T18:41:10.508Z,62.27
2023-03-23T18:41:33.890Z,62.27
2023-03-23T18:41:57.131Z,62.29
2023-03-23T18:42:20.554Z,62.35
2023-03-23T18:42:45.207Z,62.30
2023-03-23T18:43:08.214Z,62.36
2023-03-23T18:43:31.539Z,62.33
2023-03-23T18:43:56.251Z,62.35
2023-03-23T18:44:21.340Z,62.42
2023-03-23T18:44:44.451Z,62.35
2023-03-23T18:45:08.898Z,62.48
2023-03-23T18:45:33.254Z,62.58
2023-03-23T18:45:56.891Z,62.57
2023-03-23T18:46:20.201Z,62.65
2023-03-23T18:46:43.704Z,62.55
2023-03-23T18:47:06.905Z,62.73
2023-03-23T18:47:30.968Z,62.70
2023-03-23T18:47:54.613Z,62.62
2023-03-23T18:48:17.902Z,62.72
2023-03-23T18:48:41.321Z,62.87
2023-03-23T18:49:04.539Z,62.88
2023-03-23T18:49:33.684Z,62.90
2023-03-23T18:49:56.905Z,62.91
2023-03-23T18:50:22.901Z,62.90
2023-03-23T18:50:47.146Z,62.91
2023-03-23T18:51:11.482Z,63.07
2023-03-23T18:51:37.887Z,63.12
2023-03-23T18:52:01.163Z,63.23
2023-03-23T18:52:26.686Z,63.23
2023-03-23T18:52:50.378Z,63.44
2023-03-23T18:53:15.008Z,63.39
2023-03-23T18:53:38.223Z,63.49
2023-03-23T18:54:01.361Z,63.52
2023-03-23T18:54:25.987Z,63.61
2023-03-23T18:54:49.306Z,63.57
2023-03-23T18:55:16.306Z,63.71
2023-03-23T18:55:40.803Z,63.77
2023-03-23T18:56:12.052Z,63.80
2023-03-23T18:56:35.340Z,63.90
2023-03-23T18:57:00.443Z,63.92
2023-03-23T18:57:24.144Z,63.92
2023-03-23T18:57:47.250Z,63.98
2023-03-23T18:58:11.299Z,64.04
2023-03-23T18:58:34.324Z,64.12
2023-03-23T18:58:57.321Z,64.10
2023-03-23T18:59:20.332Z,64.12
2023-03-23T18:59:43.454Z,64.23
2023-03-23T19:00:07.183Z,64.22
2023-03-23T19:00:30.628Z,64.26
2023-03-23T19:00:56.910Z,64.33
2023-03-23T19:01:20.742Z,64.28
2023-03-23T19:01:44.122Z,64.31
2023-03-23T19:02:07.473Z,64.25
2023-03-23T19:02:33.153Z,64.15
2023-03-23T19:02:56.411Z,64.14
2023-03-23T19:03:19.875Z,64.16
2023-03-23T19:03:43.803Z,64.17
2023-03-23T19:04:07.350Z,64.05
2023-03-23T19:04:34.115Z,64.07
2023-03-23T19:04:57.636Z,63.99
2023-03-23T19:05:21.077Z,64.12
2023-03-23T19:05:45.572Z,64.01
2023-03-23T19:06:17.652Z,64.05
2023-03-23T19:06:40.729Z,64.00
2023-03-23T19:07:03.744Z,63.93
2023-03-23T19:07:27.433Z,64.10
2023-03-23T19:07:53.863Z,63.99
2023-03-23T19:08:18.409Z,64.06
2023-03-23T19:08:41.335Z,64.10
2023-03-23T19:09:09.230Z,64.09
2023-03-23T19:09:34.493Z,64.10
2023-03-23T19:10:01.293Z,64.12
2023-03-23T19:10:25.009Z,64.16
2023-03-23T19:10:48.033Z,64.24
2023-03-23T19:11:12.785Z,64.21
2023-03-23T19:11:37.123Z,64.50
2023-03-23T19:12:01.068Z,64.49
2023-03-23T19:12:24.177Z,64.54
2023-03-23T19:12:48.520Z,64.52
2023-03-23T19:13:11.694Z,64.68
2023-03-23T19:13:37.570Z,64.74
2023-03-23T19:14:03.384Z,64.64
2023-03-23T19:14:27.313Z,64.61
2023-03-23T19:14:51.856Z,64.58
2023-03-23T19:15:15.535Z,64.62
2023-03-23T19:15:39.960Z,64.53
2023-03-23T19:16:03.717Z,64.54
2023-03-23T19:16:26.867Z,64.55
2023-03-23T19:16:52.746Z,64.50
2023-03-23T19:17:17.404Z,64.46
2023-03-23T19:17:46.674Z,64.61
2023-03-23T19:18:10.744Z,64.68
2023-03-23T19:18:35.938Z,64.56
2023-03-23T19:18:59.976Z,64.54
2023-03-23T19:19:24.959Z,64.56
2023-03-23T19:19:49.076Z,64.55
2023-03-23T19:20:16.005Z,64.52
2023-03-23T19:21:12.610Z,64.44
2023-03-23T19:21:32.959Z,64.50
2023-03-23T19:21:56.636Z,64.50
2023-03-23T19:22:19.820Z,64.50
2023-03-23T19:22:43.034Z,64.53
2023-03-23T19:23:06.150Z,64.60
2023-03-23T19:23:29.477Z,64.51
2023-03-23T19:23:52.884Z,64.66
2023-03-23T19:24:15.965Z,64.63
2023-03-23T19:24:39.726Z,64.71
2023-03-23T19:25:03.865Z,64.63
2023-03-23T19:25:28.000Z,64.58
2023-03-23T19:25:52.473Z,64.56
2023-03-23T19:26:19.784Z,64.70
2023-03-23T19:26:43.570Z,64.76
2023-03-23T19:27:08.122Z,64.73
2023-03-23T19:27:31.426Z,64.78
2023-03-23T19:29:03.783Z,64.85
2023-03-23T19:29:40.318Z,64.86
2023-03-23T19:30:05.082Z,64.98
2023-03-23T19:30:29.099Z,64.95
2023-03-23T19:30:56.924Z,64.99
2023-03-23T19:31:25.180Z,64.99
2023-03-23T19:31:48.640Z,65.03
2023-03-23T19:32:12.190Z,64.94
2023-03-23T19:32:37.121Z,64.95
2023-03-23T19:33:00.354Z,65.05
2023-03-23T19:33:23.988Z,65.06
2023-03-23T19:33:47.308Z,65.10
2023-03-23T19:34:10.736Z,65.08
2023-03-23T19:34:33.948Z,65.11
2023-03-23T19:34:57.378Z,65.29
2023-03-23T19:35:20.918Z,65.21
2023-03-23T19:35:46.313Z,65.22
2023-03-23T19:36:14.408Z,65.23
2023-03-23T19:36:40.532Z,65.28
2023-03-23T19:37:06.311Z,65.33
2023-03-23T19:37:34.856Z,65.50
2023-03-23T19:37:58.318Z,65.41
2023-03-23T19:38:22.147Z,65.50
2023-03-23T19:38:45.560Z,65.52
2023-03-23T19:39:09.028Z,65.52
2023-03-23T19:39:33.301Z,65.54
2023-03-23T19:39:56.333Z,65.58
2023-03-23T19:40:36.641Z,65.63
2023-03-23T19:41:04.934Z,65.58
2023-03-23T19:41:29.213Z,65.49
2023-03-23T19:41:54.241Z,65.50
2023-03-23T19:42:18.582Z,65.52
2023-03-23T19:42:42.412Z,65.46
2023-03-23T19:43:06.083Z,65.45
2023-03-23T19:43:30.423Z,65.64
2023-03-23T19:43:53.923Z,65.38
2023-03-23T19:44:18.029Z,65.36
2023-03-23T19:44:41.457Z,65.34
2023-03-23T19:45:04.774Z,65.26
2023-03-23T19:45:28.193Z,65.25
2023-03-23T19:45:51.408Z,65.28
2023-03-23T19:46:14.791Z,65.25
2023-03-23T19:46:38.082Z,65.22
2023-03-23T19:47:01.453Z,65.38
2023-03-23T19:47:25.988Z,65.45
2023-03-23T19:47:49.608Z,65.30
2023-03-23T19:48:13.122Z,65.44
2023-03-23T19:48:39.610Z,65.49
2023-03-23T19:49:03.605Z,65.44
2023-03-23T19:49:28.139Z,65.47
2023-03-23T19:49:51.854Z,65.63
2023-03-23T19:50:16.645Z,65.65
2023-03-23T19:50:40.698Z,65.61
2023-03-23T19:51:07.027Z,65.76
2023-03-23T19:51:30.693Z,65.71
2023-03-23T19:52:06.485Z,65.68
2023-03-23T19:52:32.430Z,65.75
2023-03-23T19:52:58.400Z,65.74
2023-03-23T19:53:23.783Z,65.80
2023-03-23T19:53:47.596Z,65.81
2023-03-23T19:54:10.896Z,65.83
2023-03-23T19:54:35.792Z,65.76
2023-03-23T19:54:59.268Z,65.80
2023-03-23T19:55:23.262Z,65.78
2023-03-23T19:55:47.015Z,65.86
2023-03-23T19:56:15.812Z,65.87
2023-03-23T19:56:39.068Z,65.86
2023-03-23T19:57:04.093Z,65.81
2023-03-23T19:57:27.901Z,65.77
2023-03-23T19:57:51.526Z,65.89
2023-03-23T19:58:14.638Z,65.92
2023-03-23T19:58:41.619Z,66.11
2023-03-23T19:59:08.138Z,65.95
2023-03-23T19:59:31.445Z,66.07
2023-03-23T19:59:54.457Z,65.92
2023-03-23T20:00:18.391Z,66.03
2023-03-23T20:01:08.618Z,66.03
2023-03-23T20:01:33.127Z,66.08
2023-03-23T20:01:58.537Z,66.18
2023-03-23T20:02:23.056Z,66.16
2023-03-23T20:02:47.539Z,66.18
2023-03-23T20:03:10.739Z,65.91
2023-03-23T20:03:36.233Z,66.12
2023-03-23T20:04:04.919Z,66.16
2023-03-23T20:04:28.670Z,66.10
2023-03-23T20:04:54.413Z,66.18
2023-03-23T20:05:18.595Z,66.19
2023-03-23T20:05:42.108Z,66.30
2023-03-23T20:06:07.357Z,66.18
2023-03-23T20:06:32.508Z,66.22
2023-03-23T20:06:56.331Z,66.25
2023-03-23T20:07:21.338Z,66.24
2023-03-23T20:07:48.648Z,66.28
2023-03-23T20:08:14.966Z,66.38
2023-03-23T20:08:40.558Z,66.39
2023-03-23T20:09:05.044Z,66.38
2023-03-23T20:09:29.610Z,66.38
2023-03-23T20:09:54.198Z,66.37
2023-03-23T20:10:19.455Z,66.31
2023-03-23T20:10:46.457Z,66.37
2023-03-23T20:11:13.093Z,66.34
2023-03-23T20:11:36.407Z,66.28
2023-03-23T20:12:01.292Z,66.25
2023-03-23T20:12:24.725Z,66.29
2023-03-23T20:12:48.176Z,66.32
2023-03-23T20:13:11.768Z,66.36
2023-03-23T20:13:36.437Z,66.33
2023-03-23T20:14:00.526Z,66.34
2023-03-23T20:14:25.853Z,66.43
2023-03-23T20:14:49.030Z,66.48
2023-03-23T20:15:12.586Z,66.35
2023-03-23T20:15:35.898Z,66.41
2023-03-23T20:16:00.629Z,66.43
2023-03-23T20:16:24.817Z,66.46
2023-03-23T20:16:48.118Z,66.42
2023-03-23T20:17:14.787Z,66.39
2023-03-23T20:17:40.721Z,66.38
2023-03-23T20:18:07.991Z,66.47
2023-03-23T20:18:34.360Z,66.51
2023-03-23T20:19:00.104Z,66.32
2023-03-23T20:19:23.653Z,66.31
2023-03-23T20:19:47.090Z,66.27
2023-03-23T20:20:11.118Z,66.28
2023-03-23T20:20:36.819Z,66.26
2023-03-23T20:21:03.901Z,66.18
2023-03-23T20:21:27.626Z,66.14
2023-03-23T20:21:52.293Z,65.96
2023-03-23T20:22:15.689Z,66.08
2023-03-23T20:22:38.857Z,66.09
2023-03-23T20:23:02.222Z,66.12
2023-03-23T20:23:25.439Z,66.14
2023-03-23T20:23:49.887Z,66.09
2023-03-23T20:24:21.755Z,66.04
2023-03-23T20:24:47.423Z,66.10
2023-03-23T20:25:10.847Z,66.10
2023-03-23T20:25:35.228Z,66.20
2023-03-23T20:25:59.262Z,66.23
2023-03-23T20:26:24.519Z,66.18
2023-03-23T20:26:47.699Z,66.26
2023-03-23T20:27:11.568Z,66.32
2023-03-23T20:27:35.813Z,66.34
2023-03-23T20:27:58.780Z,66.31
2023-03-23T20:28:22.031Z,66.21
2023-03-23T20:28:45.851Z,66.38
2023-03-23T20:29:09.314Z,66.32
2023-03-23T20:29:33.563Z,66.34
2023-03-23T20:29:57.248Z,66.34
2023-03-23T20:30:21.427Z,66.41
2023-03-23T20:30:46.753Z,66.41
2023-03-23T20:31:36.783Z,66.50
2023-03-23T20:32:00.490Z,66.52
2023-03-23T20:32:23.573Z,66.64
2023-03-23T20:32:46.726Z,66.62
2023-03-23T20:33:10.799Z,66.64
2023-03-23T20:33:35.710Z,66.62
2023-03-23T20:34:01.995Z,66.69
2023-03-23T20:34:29.211Z,66.60
2023-03-23T20:34:52.210Z,66.74
2023-03-23T20:35:16.468Z,66.68
2023-03-23T20:35:40.116Z,66.67
2023-03-23T20:36:03.576Z,66.80
2023-03-23T20:36:29.827Z,66.74
2023-03-23T20:36:54.839Z,66.77
2023-03-23T20:37:20.970Z,66.81
2023-03-23T20:37:45.364Z,66.73
2023-03-23T20:38:08.678Z,66.72
2023-03-23T20:38:35.457Z,66.68
2023-03-23T20:38:59.000Z,66.77
2023-03-23T20:39:23.579Z,66.85
2023-03-23T20:39:48.199Z,66.81
2023-03-23T20:40:12.532Z,66.81
2023-03-23T20:40:35.848Z,66.89
2023-03-23T20:40:59.885Z,66.88
2023-03-23T20:41:24.432Z,66.92
2023-03-23T20:41:48.619Z,66.91
2023-03-23T20:42:11.785Z,66.88
2023-03-23T20:42:35.426Z,66.89
2023-03-23T20:42:58.529Z,66.99
2023-03-23T20:43:21.844Z,66.99
2023-03-23T20:43:47.413Z,66.98
2023-03-23T20:44:15.965Z,67.12
2023-03-23T20:44:39.779Z,66.94
2023-03-23T20:45:03.610Z,67.09
2023-03-23T20:45:26.928Z,67.15
2023-03-23T20:45:51.674Z,66.99
2023-03-23T20:46:14.996Z,67.08
2023-03-23T20:46:38.936Z,66.99
2023-03-23T20:47:05.211Z,67.13
2023-03-23T20:47:28.243Z,67.13
2023-03-23T20:47:51.805Z,67.08
2023-03-23T20:48:17.008Z,67.12
2023-03-23T20:48:40.384Z,67.10
2023-03-23T20:49:05.489Z,67.10
2023-03-23T20:49:30.979Z,67.11
2023-03-23T20:49:58.598Z,67.13
2023-03-23T20:50:21.690Z,67.13
2023-03-23T20:50:48.782Z,67.17
2023-03-23T20:51:13.945Z,67.10
2023-03-23T20:51:38.085Z,67.20
2023-03-23T20:52:02.025Z,67.17
2023-03-23T20:52:26.206Z,67.06
2023-03-23T20:52:49.674Z,67.11
2023-03-23T20:53:13.295Z,67.13
2023-03-23T20:53:36.657Z,66.97
2023-03-23T20:54:02.022Z,66.96
2023-03-23T20:54:25.222Z,66.90
2023-03-23T20:54:49.434Z,66.77
2023-03-23T20:55:12.652Z,66.82
2023-03-23T20:55:35.870Z,66.81
2023-03-23T20:56:02.155Z,66.72
2023-03-23T20:56:26.926Z,66.66
2023-03-23T20:56:50.265Z,66.78
2023-03-23T20:57:15.111Z,66.72
2023-03-23T20:57:40.447Z,66.76
2023-03-23T20:58:04.275Z,66.75
2023-03-23T20:58:28.199Z,66.77
2023-03-23T20:58:51.336Z,66.79
2023-03-23T20:59:15.654Z,66.81
2023-03-23T20:59:39.384Z,66.82
2023-03-23T21:00:06.690Z,66.84
2023-03-23T21:00:30.626Z,66.87
2023-03-23T21:00:57.576Z,66.75
2023-03-23T21:01:24.698Z,66.99
2023-03-23T21:01:47.951Z,66.92
2023-03-23T21:02:15.329Z,66.91
2023-03-23T21:02:44.285Z,67.04
2023-03-23T21:03:09.664Z,67.14
2023-03-23T21:03:34.651Z,67.18
2023-03-23T21:04:00.304Z,67.27
2023-03-23T21:04:27.517Z,67.25
2023-03-23T21:04:53.128Z,67.24
2023-03-23T21:05:17.408Z,67.23
2023-03-23T21:05:41.495Z,67.27
2023-03-23T21:06:07.011Z,67.48
2023-03-23T21:06:31.458Z,67.41
2023-03-23T21:06:54.765Z,67.40
2023-03-23T21:07:18.211Z,67.44
2023-03-23T21:07:42.938Z,67.37
2023-03-23T21:08:06.972Z,67.50
2023-03-23T21:08:30.497Z,67.53
2023-03-23T21:08:53.647Z,67.52
2023-03-23T21:09:19.115Z,67.55
2023-03-23T21:09:42.499Z,67.60
2023-03-23T21:10:07.355Z,67.50
2023-03-23T21:10:32.508Z,67.63
2023-03-23T21:10:58.595Z,67.74
2023-03-23T21:11:22.328Z,67.72
2023-03-23T21:11:45.532Z,67.66
2023-03-23T21:12:11.820Z,67.68
2023-03-23T21:12:35.344Z,67.71
2023-03-23T21:12:58.661Z,67.68
2023-03-23T21:13:21.878Z,67.70
2023-03-23T21:13:45.605Z,67.59
2023-03-23T21:14:08.940Z,67.69
2023-03-23T21:14:33.170Z,67.54
2023-03-23T21:14:56.070Z,67.74
2023-03-23T21:15:20.311Z,67.64
2023-03-23T21:15:43.919Z,67.76
2023-03-23T21:16:07.720Z,67.70
2023-03-23T21:16:30.968Z,67.77
2023-03-23T21:16:54.299Z,67.64
2023-03-23T21:17:25.093Z,67.65